TMS weather

São Tomé International Airport
São Tomé, São Tomé, São Tomé and Principe

Public forecast

Using degrees Celsius for public forecast. Weather courtesy of forecast.io.

METAR (pilot weather report)

Retrieved 2019/07/20 09:00 UTC (21 minutes ago):

FPST 200900Z 05002KT 9999 FEW020 BKN110 28/24 Q1017 NOSIG

TAF (pilot weather forecast)

Forecast is more than 12 hours old.

Retrieved 2019/07/19 12:03 UTC (21 hours ago):

TAF FPST 182200Z 1812/1918 18018KT 9999 FEW023 BKN110 BECMG 1818/1822 FEW020 SCT040